createdAt,value
2024-01-24T00:02:03.197Z,96494.94
2024-01-24T00:04:31.005Z,96491.41
2024-01-24T00:06:58.297Z,96502.53
2024-01-24T00:09:25.625Z,96516.41
2024-01-24T00:11:52.892Z,96489.00
2024-01-24T00:14:20.120Z,96490.63
2024-01-24T00:16:47.320Z,96477.09
2024-01-24T00:19:14.626Z,96479.50
2024-01-24T00:21:42.164Z,96487.94
2024-01-24T00:24:09.511Z,96480.03
2024-01-24T00:26:39.586Z,96475.84
2024-01-24T00:29:06.762Z,96463.97
2024-01-24T00:31:34.191Z,96469.69
2024-01-24T00:34:01.760Z,96459.31
2024-01-24T00:36:28.985Z,96441.63
2024-01-24T00:38:56.125Z,96447.19
2024-01-24T00:41:23.469Z,96460.91
2024-01-24T00:43:50.649Z,96453.72
2024-01-24T00:46:17.777Z,96464.63
2024-01-24T00:48:45.258Z,96452.34
2024-01-24T00:51:13.198Z,96453.72
2024-01-24T00:53:41.285Z,96458.72
2024-01-24T00:56:08.596Z,96461.19
2024-01-24T00:58:35.811Z,96459.81
2024-01-24T01:01:03.141Z,96459.69
2024-01-24T01:03:30.470Z,96444.06
2024-01-24T01:05:57.709Z,96433.53
2024-01-24T01:08:25.004Z,96427.50
2024-01-24T01:10:52.158Z,96427.25
2024-01-24T01:13:19.623Z,96430.84
2024-01-24T01:15:46.986Z,96417.38
2024-01-24T01:18:14.264Z,96415.13
2024-01-24T01:20:41.689Z,96411.00
2024-01-24T01:23:08.890Z,96402.16
2024-01-24T01:25:36.151Z,96392.34
2024-01-24T01:28:03.400Z,96401.56
2024-01-24T01:30:30.600Z,96421.06
2024-01-24T01:32:57.949Z,96399.72
2024-01-24T01:35:25.316Z,96401.97
2024-01-24T01:37:52.624Z,96420.78
2024-01-24T01:40:19.895Z,96407.94
2024-01-24T01:42:47.222Z,96396.34
2024-01-24T01:45:14.492Z,96390.56
2024-01-24T01:47:42.294Z,96381.25
2024-01-24T01:50:17.948Z,96379.97
2024-01-24T01:52:46.993Z,96370.13
2024-01-24T01:55:15.262Z,96365.44
2024-01-24T01:57:44.924Z,96365.41
2024-01-24T02:00:20.506Z,96357.69
2024-01-24T02:02:48.890Z,96348.97
2024-01-24T02:05:16.375Z,96345.72
2024-01-24T02:07:45.053Z,96341.66
2024-01-24T02:10:13.242Z,96341.00
2024-01-24T02:12:40.698Z,96327.97
2024-01-24T02:15:11.428Z,96328.63
2024-01-24T02:17:38.895Z,96329.28
2024-01-24T02:20:10.945Z,96336.97
2024-01-24T02:22:38.265Z,96332.59
2024-01-24T02:25:06.380Z,96314.81
2024-01-24T02:27:33.621Z,96322.44
2024-01-24T02:30:00.794Z,96332.44
2024-01-24T02:32:28.105Z,96325.00
2024-01-24T02:34:55.334Z,96306.72
2024-01-24T02:37:23.435Z,96299.50
2024-01-24T02:39:50.752Z,96298.69
2024-01-24T02:42:18.149Z,96290.81
2024-01-24T02:44:45.337Z,96290.81
2024-01-24T02:47:13.016Z,96283.16
2024-01-24T02:49:40.921Z,96285.97
2024-01-24T02:52:08.273Z,96277.75
2024-01-24T02:54:37.584Z,96279.22
2024-01-24T02:57:05.817Z,96276.13
2024-01-24T02:59:33.198Z,96261.56
2024-01-24T03:02:00.497Z,96264.22
2024-01-24T03:04:28.071Z,96266.19
2024-01-24T03:06:57.044Z,96259.28
2024-01-24T03:09:24.373Z,96261.72
2024-01-24T03:11:51.628Z,96255.63
2024-01-24T03:14:18.982Z,96250.75
2024-01-24T03:16:46.134Z,96247.00
2024-01-24T03:19:14.918Z,96252.47
2024-01-24T03:21:42.768Z,96251.56
2024-01-24T03:24:09.998Z,96248.63
2024-01-24T03:26:37.434Z,96231.69
2024-01-24T03:29:04.759Z,96229.03
2024-01-24T03:31:32.009Z,96225.28
2024-01-24T03:33:59.327Z,96228.38
2024-01-24T03:36:26.632Z,96227.06
2024-01-24T03:38:54.657Z,96222.97
2024-01-24T03:41:21.927Z,96223.38
2024-01-24T03:43:49.505Z,96213.28
2024-01-24T03:46:21.165Z,96221.56
2024-01-24T03:48:48.686Z,96220.91
2024-01-24T03:51:15.999Z,96207.94
2024-01-24T03:53:43.170Z,96211.69
2024-01-24T03:56:10.329Z,96226.66
2024-01-24T03:58:38.233Z,96218.38
2024-01-24T04:01:06.489Z,96219.06
2024-01-24T04:03:33.952Z,96232.16
2024-01-24T04:06:01.439Z,96228.94
2024-01-24T04:08:28.732Z,96227.59
2024-01-24T04:10:56.044Z,96225.31
2024-01-24T04:13:23.207Z,96232.91
2024-01-24T04:15:50.462Z,96223.56
2024-01-24T04:18:17.997Z,96229.19
2024-01-24T04:20:45.452Z,96239.63
2024-01-24T04:23:12.709Z,96227.31
2024-01-24T04:25:39.852Z,96225.47
2024-01-24T04:28:07.124Z,96208.97
2024-01-24T04:30:34.440Z,96210.84
2024-01-24T04:33:01.744Z,96215.38
2024-01-24T04:35:28.931Z,96231.22
2024-01-24T04:37:56.076Z,96215.66
2024-01-24T04:40:23.258Z,96216.34
2024-01-24T04:42:50.436Z,96213.81
2024-01-24T04:45:18.004Z,96221.38
2024-01-24T04:47:46.967Z,96203.78
2024-01-24T04:50:14.454Z,96209.28
2024-01-24T04:52:41.690Z,96208.13
2024-01-24T04:55:15.018Z,96202.63
2024-01-24T04:57:42.772Z,96218.69
2024-01-24T05:00:13.052Z,96204.22
2024-01-24T05:02:40.611Z,96207.69
2024-01-24T05:05:08.678Z,96202.19
2024-01-24T05:07:36.295Z,96203.56
2024-01-24T05:10:04.816Z,96209.63
2024-01-24T05:12:32.857Z,96221.19
2024-01-24T05:15:00.332Z,96224.66
2024-01-24T05:17:27.544Z,96224.63
2024-01-24T05:19:55.344Z,96227.84
2024-01-24T05:22:22.833Z,96239.75
2024-01-24T05:24:50.149Z,96231.19
2024-01-24T05:27:17.585Z,96239.06
2024-01-24T05:29:46.745Z,96241.00
2024-01-24T05:32:14.837Z,96242.19
2024-01-24T05:34:42.344Z,96242.78
2024-01-24T05:37:09.825Z,96237.84
2024-01-24T05:39:37.031Z,96254.69
2024-01-24T05:42:04.646Z,96253.75
2024-01-24T05:44:31.803Z,96240.44
2024-01-24T05:46:58.924Z,96253.41
2024-01-24T05:49:26.320Z,96243.69
2024-01-24T05:51:53.624Z,96246.66
2024-01-24T05:54:22.437Z,96260.31
2024-01-24T05:56:49.604Z,96271.44
2024-01-24T05:59:16.846Z,96271.19
2024-01-24T06:01:44.673Z,96272.59
2024-01-24T06:04:12.245Z,96271.53
2024-01-24T06:06:39.810Z,96272.81
2024-01-24T06:09:07.328Z,96266.72
2024-01-24T06:11:34.653Z,96273.00
2024-01-24T06:14:01.989Z,96270.94
2024-01-24T06:16:29.172Z,96275.53
2024-01-24T06:18:56.423Z,96262.25
2024-01-24T06:21:23.693Z,96265.69
2024-01-24T06:23:50.863Z,96265.19
2024-01-24T06:26:18.134Z,96263.38
2024-01-24T06:28:45.327Z,96247.81
2024-01-24T06:31:13.166Z,96262.03
2024-01-24T06:33:40.390Z,96256.81
2024-01-24T06:36:07.767Z,96250.06
2024-01-24T06:38:34.932Z,96246.66
2024-01-24T06:41:02.153Z,96251.97
2024-01-24T06:43:30.053Z,96266.38
2024-01-24T06:45:57.340Z,96270.75
2024-01-24T06:48:24.721Z,96257.22
2024-01-24T06:50:51.968Z,96270.50
2024-01-24T06:53:19.116Z,96267.63
2024-01-24T06:55:46.357Z,96250.06
2024-01-24T06:58:13.775Z,96234.94
2024-01-24T07:00:41.047Z,96250.75
2024-01-24T07:03:08.368Z,96243.66
2024-01-24T07:05:35.594Z,96232.75
2024-01-24T07:08:02.827Z,96245.97
2024-01-24T07:10:30.023Z,96238.53
2024-01-24T07:12:58.242Z,96254.91
2024-01-24T07:15:26.124Z,96257.22
2024-01-24T07:17:53.395Z,96256.94
2024-01-24T07:20:20.749Z,96259.97
2024-01-24T07:22:48.003Z,96243.91
2024-01-24T07:25:15.235Z,96267.19
2024-01-24T07:27:42.824Z,96281.63
2024-01-24T07:30:10.554Z,96275.34
2024-01-24T07:32:41.041Z,96276.00
2024-01-24T07:35:10.363Z,96292.72
2024-01-24T07:37:37.878Z,96296.19
2024-01-24T07:40:05.996Z,96287.25
2024-01-24T07:42:33.370Z,96300.56
2024-01-24T07:45:01.171Z,96312.03
2024-01-24T07:47:28.440Z,96304.91
2024-01-24T07:49:57.110Z,96296.44
2024-01-24T07:52:32.380Z,96296.19
2024-01-24T07:55:08.039Z,96298.03
2024-01-24T07:57:36.339Z,96280.72
2024-01-24T08:00:07.364Z,96274.63
2024-01-24T08:02:35.423Z,96259.72
2024-01-24T08:05:03.127Z,96249.97
2024-01-24T08:07:32.412Z,96266.38
2024-01-24T08:09:59.870Z,96256.97
2024-01-24T08:12:27.154Z,96285.63
2024-01-24T08:14:54.715Z,96296.88
2024-01-24T08:17:21.999Z,96287.94
2024-01-24T08:19:52.674Z,96266.84
2024-01-24T08:22:19.883Z,96270.97
2024-01-24T08:24:47.157Z,96244.81
2024-01-24T08:27:14.658Z,96259.47
2024-01-24T08:29:41.984Z,96250.06
2024-01-24T08:32:09.211Z,96261.06
2024-01-24T08:34:37.742Z,96270.03
2024-01-24T08:37:06.415Z,96265.88
2024-01-24T08:39:34.435Z,96286.28
2024-01-24T08:42:04.702Z,96281.97
2024-01-24T08:44:31.969Z,96297.56
2024-01-24T08:46:59.464Z,96293.69
2024-01-24T08:49:26.881Z,96288.84
2024-01-24T08:51:54.461Z,96293.56
2024-01-24T08:54:22.316Z,96290.00
2024-01-24T08:56:50.412Z,96276.22
2024-01-24T08:59:18.289Z,96271.31
2024-01-24T09:01:47.205Z,96286.22
2024-01-24T09:04:15.452Z,96283.13
2024-01-24T09:06:44.291Z,96262.03
2024-01-24T09:09:15.033Z,96257.41
2024-01-24T09:11:49.429Z,96222.56
2024-01-24T09:14:25.408Z,96262.03
2024-01-24T09:16:53.316Z,96251.03
2024-01-24T09:19:21.475Z,96235.44
2024-01-24T09:21:49.176Z,96239.88
2024-01-24T09:24:17.550Z,96276.28
2024-01-24T09:26:44.853Z,96265.41
2024-01-24T09:29:14.594Z,96287.72
2024-01-24T09:31:46.740Z,96271.22
2024-01-24T09:34:14.311Z,96261.19
2024-01-24T09:36:42.170Z,96246.47
2024-01-24T09:39:13.213Z,96233.97
2024-01-24T09:41:42.853Z,96242.09
2024-01-24T09:44:13.093Z,96224.03
2024-01-24T09:46:43.336Z,96232.56
2024-01-24T09:49:11.671Z,96220.41
2024-01-24T09:51:42.451Z,96201.88
2024-01-24T09:54:13.810Z,96211.06
2024-01-24T09:56:43.985Z,96198.19
2024-01-24T09:59:12.817Z,96206.09
2024-01-24T10:01:40.982Z,96199.63
2024-01-24T10:04:10.502Z,96215.34
2024-01-24T10:06:40.754Z,96243.28
2024-01-24T10:09:10.789Z,96250.06
2024-01-24T10:11:37.923Z,96241.69
2024-01-24T10:14:05.114Z,96242.09
2024-01-24T10:16:32.851Z,96247.50
2024-01-24T10:19:00.239Z,96246.13
2024-01-24T10:21:27.893Z,96249.53
2024-01-24T10:24:00.290Z,96261.91
2024-01-24T10:26:28.124Z,96233.25
2024-01-24T10:28:56.152Z,96247.56
2024-01-24T10:31:25.010Z,96256.94
2024-01-24T10:33:57.080Z,96249.19
2024-01-24T10:36:28.157Z,96247.41
2024-01-24T10:39:01.686Z,96246.38
2024-01-24T10:41:33.540Z,96254.53
2024-01-24T10:44:11.778Z,96238.19
2024-01-24T10:46:40.229Z,96216.28
2024-01-24T10:49:11.051Z,96244.91
2024-01-24T10:51:39.862Z,96240.47
2024-01-24T10:54:08.190Z,96251.56
2024-01-24T10:56:39.348Z,96250.63
2024-01-24T10:59:08.490Z,96231.94
2024-01-24T11:01:36.125Z,96243.22
2024-01-24T11:04:08.655Z,96229.34
2024-01-24T11:06:48.147Z,96241.16
2024-01-24T11:09:25.170Z,96238.59
2024-01-24T11:11:58.444Z,96212.84
2024-01-24T11:14:34.370Z,96191.88
2024-01-24T11:17:07.022Z,96200.31
2024-01-24T11:19:34.643Z,96203.94
2024-01-24T11:22:16.420Z,96222.41
2024-01-24T11:24:53.973Z,96203.44
2024-01-24T11:27:36.593Z,96200.38
2024-01-24T11:30:19.838Z,96205.13
2024-01-24T11:32:47.834Z,96200.66
2024-01-24T11:35:33.608Z,96201.03
2024-01-24T11:38:16.942Z,96194.44
2024-01-24T11:40:54.036Z,96205.66
2024-01-24T11:43:31.719Z,96170.31
2024-01-24T11:46:06.929Z,96182.88
2024-01-24T11:48:40.559Z,96183.56
2024-01-24T11:51:10.200Z,96178.34
2024-01-24T11:53:37.563Z,96169.84
2024-01-24T11:56:06.671Z,96183.13
2024-01-24T11:58:34.625Z,96185.53
2024-01-24T12:01:12.266Z,96182.97
2024-01-24T12:03:50.618Z,96190.34
2024-01-24T12:06:19.157Z,96187.88
2024-01-24T12:08:49.864Z,96181.00
2024-01-24T12:11:18.885Z,96195.97
2024-01-24T12:13:46.590Z,96191.78
2024-01-24T12:16:14.086Z,96201.81
2024-01-24T12:18:42.362Z,96184.53
2024-01-24T12:21:10.528Z,96172.72
2024-01-24T12:23:38.117Z,96189.09
2024-01-24T12:26:05.821Z,96187.59
2024-01-24T12:28:33.882Z,96179.13
2024-01-24T12:31:04.704Z,96186.53
2024-01-24T12:33:34.514Z,96182.16
2024-01-24T12:36:07.568Z,96175.50
2024-01-24T12:38:36.996Z,96171.31
2024-01-24T12:41:05.201Z,96166.03
2024-01-24T12:43:32.905Z,96160.00
2024-01-24T12:46:08.229Z,96148.88
2024-01-24T12:48:36.379Z,96174.31
2024-01-24T12:51:04.194Z,96159.56
2024-01-24T12:53:33.686Z,96131.47
2024-01-24T12:56:01.904Z,96143.91
2024-01-24T12:58:30.358Z,96113.56
2024-01-24T13:00:57.847Z,96145.78
2024-01-24T13:03:27.603Z,96161.63
2024-01-24T13:05:57.471Z,96166.59
2024-01-24T13:08:25.104Z,96151.56
2024-01-24T13:10:53.574Z,96149.16
2024-01-24T13:13:21.241Z,96169.56
2024-01-24T13:15:49.743Z,96156.91
2024-01-24T13:18:16.997Z,96134.81
2024-01-24T13:20:44.348Z,96139.34
2024-01-24T13:23:11.736Z,96130.16
2024-01-24T13:25:39.099Z,96123.41
2024-01-24T13:28:06.849Z,96129.22
2024-01-24T13:30:35.507Z,96134.88
2024-01-24T13:33:02.822Z,96139.81
2024-01-24T13:35:31.507Z,96155.09
2024-01-24T13:37:59.316Z,96130.94
2024-01-24T13:40:26.557Z,96147.19
2024-01-24T13:42:54.043Z,96152.38
2024-01-24T13:45:21.380Z,96164.06
2024-01-24T13:47:48.661Z,96155.50
2024-01-24T13:50:16.312Z,96163.28
2024-01-24T13:52:43.777Z,96155.50
2024-01-24T13:55:12.856Z,96153.81
2024-01-24T13:57:43.550Z,96164.66
2024-01-24T14:00:14.781Z,96161.84
2024-01-24T14:02:42.879Z,96170.25
2024-01-24T14:05:11.950Z,96156.38
2024-01-24T14:07:43.513Z,96160.28
2024-01-24T14:10:12.026Z,96172.66
2024-01-24T14:12:39.506Z,96168.88
2024-01-24T14:15:15.353Z,96160.56
2024-01-24T14:17:51.053Z,96156.69
2024-01-24T14:20:18.992Z,96188.38
2024-01-24T14:22:46.271Z,96189.38
2024-01-24T14:25:13.589Z,96169.00
2024-01-24T14:27:41.715Z,96164.50
2024-01-24T14:30:09.177Z,96187.44
2024-01-24T14:32:39.463Z,96187.78
2024-01-24T14:35:07.993Z,96192.50
2024-01-24T14:37:36.062Z,96178.63
2024-01-24T14:40:04.129Z,96186.63
2024-01-24T14:42:32.067Z,96188.06
2024-01-24T14:44:59.912Z,96188.44
2024-01-24T14:47:27.099Z,96204.44
2024-01-24T14:49:54.495Z,96206.97
2024-01-24T14:52:21.705Z,96205.81
2024-01-24T14:54:48.859Z,96211.94
2024-01-24T14:57:16.158Z,96206.25
2024-01-24T14:59:43.348Z,96213.31
2024-01-24T15:02:10.502Z,96220.13
2024-01-24T15:04:40.337Z,96223.78
2024-01-24T15:07:07.575Z,96225.94
2024-01-24T15:09:35.278Z,96228.28
2024-01-24T15:12:03.367Z,96223.69
2024-01-24T15:14:30.760Z,96217.81
2024-01-24T15:16:58.648Z,96231.72
2024-01-24T15:19:26.329Z,96236.97
2024-01-24T15:21:54.153Z,96242.66
2024-01-24T15:24:22.851Z,96235.88
2024-01-24T15:26:50.194Z,96238.25
2024-01-24T15:29:17.902Z,96238.75
2024-01-24T15:31:45.209Z,96249.09
2024-01-24T15:34:15.547Z,96249.75
2024-01-24T15:36:43.931Z,96266.53
2024-01-24T15:39:13.504Z,96303.31
2024-01-24T15:41:42.152Z,96306.13
2024-01-24T15:44:09.615Z,96314.41
2024-01-24T15:46:36.876Z,96337.84
2024-01-24T15:49:04.479Z,96328.25
2024-01-24T15:51:32.457Z,96316.66
2024-01-24T15:53:59.686Z,96351.41
2024-01-24T15:56:27.052Z,96364.50
2024-01-24T15:58:57.517Z,96356.97
2024-01-24T16:01:25.601Z,96364.81
2024-01-24T16:03:54.779Z,96359.72
2024-01-24T16:09:20.794Z,96380.31
2024-01-24T16:11:48.338Z,96395.84
2024-01-24T16:14:16.693Z,96398.13
2024-01-24T16:16:47.063Z,96396.00
2024-01-24T16:19:14.320Z,96410.47
2024-01-24T16:21:44.848Z,96417.44
2024-01-24T16:24:12.044Z,96420.25
2024-01-24T16:26:39.401Z,96409.16
2024-01-24T16:34:48.334Z,96418.25
2024-01-24T16:37:15.351Z,96438.00
2024-01-24T16:39:41.985Z,96418.97
2024-01-24T16:42:09.400Z,96427.03
2024-01-24T16:44:36.983Z,96423.38
2024-01-24T16:47:04.488Z,96430.94
2024-01-24T16:49:32.124Z,96430.28
2024-01-24T16:52:00.136Z,96429.63
2024-01-24T16:54:27.390Z,96430.59
2024-01-24T16:56:54.559Z,96455.78
2024-01-24T16:59:21.767Z,96451.53
2024-01-24T17:01:49.128Z,96448.97
2024-01-24T17:04:16.906Z,96448.69
2024-01-24T17:06:46.037Z,96446.69
2024-01-24T17:09:13.415Z,96457.66
2024-01-24T17:11:40.556Z,96457.66
2024-01-24T17:14:07.710Z,96465.28
2024-01-24T17:16:36.772Z,96474.19
2024-01-24T17:19:04.050Z,96492.91
2024-01-24T17:21:31.275Z,96490.34
2024-01-24T17:23:58.497Z,96488.56
2024-01-24T17:26:25.764Z,96468.75
2024-01-24T17:28:55.197Z,96495.06
2024-01-24T17:31:23.801Z,96480.38
2024-01-24T17:33:51.091Z,96487.97
2024-01-24T17:36:18.754Z,96496.19
2024-01-24T17:38:46.325Z,96492.00
2024-01-24T17:41:16.602Z,96489.75
2024-01-24T17:43:44.079Z,96500.53
2024-01-24T17:46:12.252Z,96489.91
2024-01-24T17:48:40.391Z,96500.66
2024-01-24T17:51:08.053Z,96502.97
2024-01-24T17:53:35.327Z,96509.75
2024-01-24T17:56:02.486Z,96514.59
2024-01-24T17:58:32.044Z,96519.09
2024-01-24T18:01:00.417Z,96507.16
2024-01-24T18:03:27.857Z,96512.50
2024-01-24T18:05:55.082Z,96512.63
2024-01-24T18:08:23.292Z,96517.19
2024-01-24T18:10:51.068Z,96526.19
2024-01-24T18:13:18.246Z,96512.16
2024-01-24T18:15:45.395Z,96518.97
2024-01-24T18:18:12.800Z,96511.34
2024-01-24T18:20:40.428Z,96521.41
2024-01-24T18:23:07.571Z,96519.44
2024-01-24T18:25:35.893Z,96531.88
2024-01-24T18:28:05.564Z,96532.06
2024-01-24T18:30:32.773Z,96547.53
2024-01-24T18:32:59.986Z,96543.31
2024-01-24T18:35:27.647Z,96555.94
2024-01-24T18:37:54.760Z,96547.38
2024-01-24T18:40:22.033Z,96542.06
2024-01-24T18:42:49.339Z,96537.88
2024-01-24T18:45:17.402Z,96532.38
2024-01-24T18:47:44.658Z,96555.63
2024-01-24T18:50:12.178Z,96542.41
2024-01-24T18:52:39.396Z,96558.50
2024-01-24T18:55:07.054Z,96552.22
2024-01-24T18:57:34.554Z,96559.81
2024-01-24T19:00:01.758Z,96549.81
2024-01-24T19:02:29.112Z,96549.81
2024-01-24T19:04:58.299Z,96560.78
2024-01-24T19:07:25.712Z,96552.22
2024-01-24T19:09:53.245Z,96558.69
2024-01-24T19:12:20.649Z,96545.00
2024-01-24T19:14:48.069Z,96550.13
2024-01-24T19:17:15.457Z,96552.06
2024-01-24T19:19:42.735Z,96547.88
2024-01-24T19:22:10.109Z,96554.47
2024-01-24T19:24:37.356Z,96544.97
2024-01-24T19:27:05.233Z,96538.69
2024-01-24T19:29:32.536Z,96551.44
2024-01-24T19:31:59.854Z,96548.50
2024-01-24T19:34:27.025Z,96552.41
2024-01-24T19:36:54.201Z,96571.59
2024-01-24T19:39:21.426Z,96558.66
2024-01-24T19:41:48.607Z,96562.22
2024-01-24T19:44:18.160Z,96565.31
2024-01-24T19:46:45.803Z,96571.25
2024-01-24T19:49:13.727Z,96570.31
2024-01-24T19:51:40.980Z,96578.66
2024-01-24T19:54:08.127Z,96592.25
2024-01-24T19:56:35.499Z,96582.56
2024-01-24T19:59:04.825Z,96588.03
2024-01-24T20:01:32.199Z,96591.09
2024-01-24T20:03:59.382Z,96595.94
2024-01-24T20:06:26.795Z,96595.63
2024-01-24T20:08:54.051Z,96591.44
2024-01-24T20:11:21.408Z,96586.41
2024-01-24T20:13:49.238Z,96597.56
2024-01-24T20:16:16.538Z,96591.09
2024-01-24T20:18:43.723Z,96613.03
2024-01-24T20:21:10.942Z,96600.94
2024-01-24T20:23:38.121Z,96601.75
2024-01-24T20:26:06.581Z,96610.59
2024-01-24T20:28:33.765Z,96590.63
2024-01-24T20:31:00.938Z,96602.38
2024-01-24T20:33:28.209Z,96618.31
2024-01-24T20:35:55.575Z,96610.28
2024-01-24T20:38:22.694Z,96617.84
2024-01-24T20:40:50.115Z,96617.03
2024-01-24T20:43:17.951Z,96617.03
2024-01-24T20:45:45.139Z,96621.38
2024-01-24T20:48:16.078Z,96626.41
2024-01-24T20:50:43.968Z,96637.34
2024-01-24T20:53:13.885Z,96643.00
2024-01-24T20:55:41.131Z,96646.19
2024-01-24T20:58:09.380Z,96632.84
2024-01-24T21:00:37.523Z,96636.22
2024-01-24T21:03:05.215Z,96643.31
2024-01-24T21:05:32.519Z,96646.06
2024-01-24T21:08:00.023Z,96639.09
2024-01-24T21:10:27.453Z,96631.84
2024-01-24T21:12:54.736Z,96630.38
2024-01-24T21:15:22.307Z,96620.41
2024-01-24T21:17:51.383Z,96633.91
2024-01-24T21:20:19.059Z,96619.84
2024-01-24T21:22:48.572Z,96614.75
2024-01-24T21:25:19.207Z,96618.94
2024-01-24T21:27:46.448Z,96618.13
2024-01-24T21:30:14.009Z,96620.69
2024-01-24T21:32:41.219Z,96618.09
2024-01-24T21:35:10.355Z,96622.59
2024-01-24T21:37:37.668Z,96625.97
2024-01-24T21:40:05.358Z,96624.69
2024-01-24T21:42:32.609Z,96616.34
2024-01-24T21:44:59.754Z,96619.28
2024-01-24T21:47:27.119Z,96627.94
2024-01-24T21:49:54.694Z,96633.22
2024-01-24T21:52:22.263Z,96635.00
2024-01-24T21:54:52.581Z,96631.50
2024-01-24T21:57:19.943Z,96632.00
2024-01-24T21:59:51.035Z,96627.44
2024-01-24T22:02:18.414Z,96631.59
2024-01-24T22:07:27.700Z,96644.63
2024-01-24T22:09:55.612Z,96636.56
2024-01-24T22:12:22.860Z,96639.94
2024-01-24T22:14:51.303Z,96621.91
2024-01-24T22:17:19.085Z,96625.59
2024-01-24T22:19:46.341Z,96637.38
2024-01-24T22:22:14.794Z,96637.03
2024-01-24T22:24:42.025Z,96632.22
2024-01-24T22:27:09.178Z,96640.41
2024-01-24T22:29:36.281Z,96637.66
2024-01-24T22:32:04.094Z,96648.34
2024-01-24T22:34:31.391Z,96650.88
2024-01-24T22:36:59.679Z,96645.88
2024-01-24T22:39:26.908Z,96648.25
2024-01-24T22:41:54.075Z,96641.94
2024-01-24T22:44:21.210Z,96649.06
2024-01-24T22:46:48.435Z,96644.66
2024-01-24T22:49:15.761Z,96646.66
2024-01-24T22:51:42.960Z,96667.38
2024-01-24T22:54:10.184Z,96650.78
2024-01-24T22:56:37.356Z,96646.03
2024-01-24T22:59:04.680Z,96645.38
2024-01-24T23:01:32.040Z,96648.06
2024-01-24T23:03:59.408Z,96651.75
2024-01-24T23:06:26.640Z,96648.69
2024-01-24T23:08:53.797Z,96657.09
2024-01-24T23:11:21.079Z,96642.88
2024-01-24T23:13:48.186Z,96654.22
2024-01-24T23:16:15.771Z,96637.28
2024-01-24T23:18:43.037Z,96628.75
2024-01-24T23:21:10.210Z,96633.25
2024-01-24T23:23:37.474Z,96627.78
2024-01-24T23:26:04.781Z,96626.97
2024-01-24T23:28:32.153Z,96626.63
2024-01-24T23:30:59.378Z,96620.78
2024-01-24T23:33:29.205Z,96621.41
2024-01-24T23:35:56.617Z,96622.41
2024-01-24T23:38:23.782Z,96615.31
2024-01-24T23:40:50.947Z,96615.56
2024-01-24T23:43:18.145Z,96602.25
2024-01-24T23:45:45.475Z,96592.84
2024-01-24T23:48:12.899Z,96594.47
2024-01-24T23:50:40.291Z,96593.41
2024-01-24T23:53:08.115Z,96588.72
2024-01-24T23:55:37.108Z,96581.31
2024-01-24T23:58:04.501Z,96584.72
